^^
Your Local Weather - Clay, NY Station Historical Data
 
Daily Summary for May 26, 2018 Units:  Both    English   Metric
« Previous Day
Next Day »
Daily Weekly Monthly Yearly Custom
  Current: High: Low: Average:
Temperature: 74.8 °F /  23.8 °C 82.3 °F /  27.9 °C 58.9 °F /  14.9 °C 72.4 °F /  22.4 °C
Dew Point: 59.5 °F /  15.3 °C 63.7 °F /  17.6 °C 51.8 °F /  11 °C 57.4 °F /  14.1 °C
Humidity: 59% 86% 45% 61%
Wind Speed: 0.0mph /  0km/h 3.0mph /  4.8km/h - 0.8mph /  1.3km/h
Wind Gust: 1.0mph /  1.6km/h 6.0mph /  9.7km/h - -
WindCalm - - WNW
Pressure: 29.78 in /  1008.4 hPa 29.78 in /  1008.4 hPa 29.69 in /  1005.3 hPa -
Precipitation: 0.00 in /  0 mm      
Historical Graphs
 
 
Tabular Data for May 26, 2018
Time Temperature Dew Point Pressure Wind Wind Speed Wind Gust Humidity Rainfall Rate (Hourly) solar
00:04 69.2 °F /  20.7 °C 52.8 °F /  11.6 °C 29.72in /  1006.3hPa WNW 1.0mph /  1.6km/h 1.0mph /  1.6km/h 56% 0.00in /  0mm 0 W/m2
00:10 69.3 °F /  20.7 °C 52.9 °F /  11.6 °C 29.72in /  1006.3hPa WNW 1.0mph /  1.6km/h 1.0mph /  1.6km/h 56% 0.00in /  0mm 0 W/m2
00:16 69.2 °F /  20.7 °C 52.8 °F /  11.6 °C 29.72in /  1006.3hPa WNW 1.0mph /  1.6km/h 1.0mph /  1.6km/h 56% 0.00in /  0mm 0 W/m2
00:22 69.1 °F /  20.6 °C 52.2 °F /  11.2 °C 29.72in /  1006.3hPa WNW 1.0mph /  1.6km/h 2.0mph /  3.2km/h 55% 0.00in /  0mm 0 W/m2
00:28 69.1 °F /  20.6 °C 52.2 °F /  11.2 °C 29.72in /  1006.3hPa WNW 1.0mph /  1.6km/h 2.0mph /  3.2km/h 55% 0.00in /  0mm 0 W/m2
00:34 69.1 °F /  20.6 °C 52.2 °F /  11.2 °C 29.72in /  1006.3hPa WNW 1.0mph /  1.6km/h 2.0mph /  3.2km/h 55% 0.00in /  0mm 0 W/m2
00:40 69.0 °F /  20.6 °C 52.2 °F /  11.2 °C 29.72in /  1006.3hPa WNW 1.0mph /  1.6km/h 1.0mph /  1.6km/h 55% 0.00in /  0mm 0 W/m2
00:46 68.8 °F /  20.4 °C 52.0 °F /  11.1 °C 29.72in /  1006.3hPa Calm   1.0mph /  1.6km/h 55% 0.00in /  0mm 0 W/m2
00:52 68.6 °F /  20.3 °C 51.8 °F /  11 °C 29.72in /  1006.3hPa Calm     55% 0.00in /  0mm 0 W/m2
00:58 68.4 °F /  20.2 °C 52.1 °F /  11.2 °C 29.72in /  1006.3hPa Calm     56% 0.00in /  0mm 0 W/m2
01:04 68.1 °F /  20.1 °C 51.8 °F /  11 °C 29.72in /  1006.3hPa Calm     56% 0.00in /  0mm 0 W/m2
01:10 67.7 °F /  19.8 °C 54.2 °F /  12.3 °C 29.71in /  1006hPa Calm     62% 0.00in /  0mm 0 W/m2
01:16 66.4 °F /  19.1 °C 53.8 °F /  12.1 °C 29.71in /  1006hPa Calm     64% 0.00in /  0mm 0 W/m2
01:22 65.3 °F /  18.5 °C 53.2 °F /  11.8 °C 29.71in /  1006hPa Calm     65% 0.00in /  0mm 0 W/m2
01:28 64.7 °F /  18.2 °C 53.9 °F /  12.2 °C 29.71in /  1006hPa Calm     68% 0.00in /  0mm 0 W/m2
01:34 64.3 °F /  17.9 °C 53.9 °F /  12.2 °C 29.71in /  1006hPa Calm     69% 0.00in /  0mm 0 W/m2
01:40 63.8 °F /  17.7 °C 54.2 °F /  12.3 °C 29.71in /  1006hPa Calm     71% 0.00in /  0mm 0 W/m2
01:46 63.3 °F /  17.4 °C 54.1 °F /  12.3 °C 29.71in /  1006hPa Calm     72% 0.00in /  0mm 0 W/m2
01:52 62.8 °F /  17.1 °C 54.0 °F /  12.2 °C 29.70in /  1005.6hPa Calm     73% 0.00in /  0mm 0 W/m2
01:58 62.5 °F /  16.9 °C 54.1 °F /  12.3 °C 29.70in /  1005.6hPa Calm     74% 0.00in /  0mm 0 W/m2
02:04 62.2 °F /  16.8 °C 53.8 °F /  12.1 °C 29.71in /  1006hPa Calm     74% 0.00in /  0mm 0 W/m2
02:10 62.2 °F /  16.8 °C 53.8 °F /  12.1 °C 29.71in /  1006hPa Calm     74% 0.00in /  0mm 0 W/m2
02:16 62.2 °F /  16.8 °C 53.4 °F /  11.9 °C 29.71in /  1006hPa Calm     73% 0.00in /  0mm 0 W/m2
02:22 62.0 °F /  16.7 °C 53.6 °F /  12 °C 29.71in /  1006hPa Calm     74% 0.00in /  0mm 0 W/m2
02:28 61.7 °F /  16.5 °C 53.3 °F /  11.8 °C 29.71in /  1006hPa Calm     74% 0.00in /  0mm 0 W/m2
02:34 61.4 °F /  16.3 °C 53.0 °F /  11.7 °C 29.71in /  1006hPa Calm     74% 0.00in /  0mm 0 W/m2
02:40 61.3 °F /  16.3 °C 53.3 °F /  11.8 °C 29.70in /  1005.6hPa Calm     75% 0.00in /  0mm 0 W/m2
02:46 61.1 °F /  16.2 °C 53.5 °F /  11.9 °C 29.70in /  1005.6hPa Calm     76% 0.00in /  0mm 0 W/m2
02:52 61.0 °F /  16.1 °C 53.4 °F /  11.9 °C 29.70in /  1005.6hPa Calm     76% 0.00in /  0mm 0 W/m2
02:58 61.1 °F /  16.2 °C 53.5 °F /  11.9 °C 29.70in /  1005.6hPa Calm     76% 0.00in /  0mm 0 W/m2
03:04 61.1 °F /  16.2 °C 53.8 °F /  12.1 °C 29.70in /  1005.6hPa Calm     77% 0.00in /  0mm 0 W/m2
03:10 61.6 °F /  16.4 °C 53.6 °F /  12 °C 29.70in /  1005.6hPa Calm     75% 0.00in /  0mm 0 W/m2
03:16 62.8 °F /  17.1 °C 53.3 °F /  11.8 °C 29.70in /  1005.6hPa Calm   1.0mph /  1.6km/h 71% 0.00in /  0mm 0 W/m2
03:22 63.8 °F /  17.7 °C 53.0 °F /  11.7 °C 29.70in /  1005.6hPa Calm     68% 0.00in /  0mm 0 W/m2
03:28 64.3 °F /  17.9 °C 53.1 °F /  11.7 °C 29.69in /  1005.3hPa Calm     67% 0.00in /  0mm 0 W/m2
03:34 65.3 °F /  18.5 °C 52.8 °F /  11.6 °C 29.69in /  1005.3hPa Calm   1.0mph /  1.6km/h 64% 0.00in /  0mm 0 W/m2
03:40 66.2 °F /  19 °C 53.2 °F /  11.8 °C 29.69in /  1005.3hPa WNW 1.0mph /  1.6km/h 1.0mph /  1.6km/h 63% 0.00in /  0mm 0 W/m2
03:46 66.5 °F /  19.2 °C 53.1 °F /  11.7 °C 29.69in /  1005.3hPa Calm   1.0mph /  1.6km/h 62% 0.00in /  0mm 0 W/m2
03:52 66.9 °F /  19.4 °C 53.0 °F /  11.7 °C 29.69in /  1005.3hPa WNW 1.0mph /  1.6km/h 1.0mph /  1.6km/h 61% 0.00in /  0mm 0 W/m2
03:58 67.1 °F /  19.5 °C 52.7 °F /  11.5 °C 29.69in /  1005.3hPa WNW 1.0mph /  1.6km/h 2.0mph /  3.2km/h 60% 0.00in /  0mm 0 W/m2
04:04 67.1 °F /  19.5 °C 52.7 °F /  11.5 °C 29.69in /  1005.3hPa WNW 1.0mph /  1.6km/h 2.0mph /  3.2km/h 60% 0.00in /  0mm 0 W/m2
04:10 67.1 °F /  19.5 °C 52.7 °F /  11.5 °C 29.69in /  1005.3hPa Calm     60% 0.00in /  0mm 0 W/m2
04:16 66.5 °F /  19.2 °C 54.4 °F /  12.4 °C 29.69in /  1005.3hPa Calm     65% 0.00in /  0mm 0 W/m2
04:22 64.5 °F /  18.1 °C 53.3 °F /  11.8 °C 29.69in /  1005.3hPa Calm     67% 0.00in /  0mm 0 W/m2
04:28 63.0 °F /  17.2 °C 53.1 °F /  11.7 °C 29.69in /  1005.3hPa Calm     70% 0.00in /  0mm 0 W/m2
04:34 62.2 °F /  16.8 °C 52.7 °F /  11.5 °C 29.70in /  1005.6hPa Calm     71% 0.00in /  0mm 0 W/m2
04:40 61.7 °F /  16.5 °C 53.0 °F /  11.7 °C 29.70in /  1005.6hPa Calm     73% 0.00in /  0mm 0 W/m2
04:46 61.4 °F /  16.3 °C 53.8 °F /  12.1 °C 29.70in /  1005.6hPa Calm   1.0mph /  1.6km/h 76% 0.00in /  0mm 0 W/m2
04:52 61.1 °F /  16.2 °C 54.2 °F /  12.3 °C 29.70in /  1005.6hPa Calm     78% 0.00in /  0mm 0 W/m2
04:58 60.7 °F /  15.9 °C 53.8 °F /  12.1 °C 29.70in /  1005.6hPa Calm     78% 0.00in /  0mm 0 W/m2
05:04 60.2 °F /  15.7 °C 53.7 °F /  12.1 °C 29.70in /  1005.6hPa Calm   2.0mph /  3.2km/h 79% 0.00in /  0mm 0 W/m2
05:10 59.7 °F /  15.4 °C 53.5 °F /  11.9 °C 29.71in /  1006hPa WNW 1.0mph /  1.6km/h 1.0mph /  1.6km/h 80% 0.00in /  0mm 0 W/m2
05:16 59.3 °F /  15.2 °C 53.5 °F /  11.9 °C 29.70in /  1005.6hPa WNW 1.0mph /  1.6km/h 2.0mph /  3.2km/h 81% 0.00in /  0mm 0 W/m2
05:20 59.3 °F /  15.2 °C 53.5 °F /  11.9 °C 29.71in /  1006hPa WNW 1.0mph /  1.6km/h 1.0mph /  1.6km/h 81% 0.00in /  0mm 0 W/m2
05:26 59.2 °F /  15.1 °C 53.7 °F /  12.1 °C 29.71in /  1006hPa Calm   1.0mph /  1.6km/h 82% 0.00in /  0mm 0 W/m2
05:32 59.2 °F /  15.1 °C 54.0 °F /  12.2 °C 29.70in /  1005.6hPa Calm     83% 0.00in /  0mm 0 W/m2
05:38 59.2 °F /  15.1 °C 54.0 °F /  12.2 °C 29.70in /  1005.6hPa Calm     83% 0.00in /  0mm 5 W/m2
05:44 59.2 °F /  15.1 °C 54.4 °F /  12.4 °C 29.70in /  1005.6hPa Calm     84% 0.00in /  0mm 9 W/m2
05:50 59.1 °F /  15.1 °C 54.3 °F /  12.4 °C 29.70in /  1005.6hPa Calm     84% 0.00in /  0mm 12 W/m2
05:56 59.0 °F /  15 °C 54.2 °F /  12.3 °C 29.71in /  1006hPa Calm     84% 0.00in /  0mm 16 W/m2
06:02 58.9 °F /  14.9 °C 54.1 °F /  12.3 °C 29.71in /  1006hPa Calm     84% 0.00in /  0mm 21 W/m2
06:08 59.0 °F /  15 °C 54.5 °F /  12.5 °C 29.71in /  1006hPa Calm     85% 0.00in /  0mm 26 W/m2
06:14 59.1 °F /  15.1 °C 54.6 °F /  12.6 °C 29.71in /  1006hPa Calm     85% 0.00in /  0mm 32 W/m2
06:20 59.3 °F /  15.2 °C 54.8 °F /  12.7 °C 29.71in /  1006hPa Calm     85% 0.00in /  0mm 42 W/m2
06:26 59.3 °F /  15.2 °C 54.8 °F /  12.7 °C 29.71in /  1006hPa Calm     85% 0.00in /  0mm 53 W/m2
06:32 59.5 °F /  15.3 °C 55.0 °F /  12.8 °C 29.71in /  1006hPa Calm     85% 0.00in /  0mm 60 W/m2
06:38 59.8 °F /  15.4 °C 55.3 °F /  12.9 °C 29.71in /  1006hPa Calm     85% 0.00in /  0mm 62 W/m2
06:44 60.1 °F /  15.6 °C 55.9 °F /  13.3 °C 29.71in /  1006hPa Calm   1.0mph /  1.6km/h 86% 0.00in /  0mm 65 W/m2
06:50 60.3 °F /  15.7 °C 55.8 °F /  13.2 °C 29.71in /  1006hPa Calm     85% 0.00in /  0mm 72 W/m2
06:56 60.6 °F /  15.9 °C 56.1 °F /  13.4 °C 29.72in /  1006.3hPa Calm     85% 0.00in /  0mm 77 W/m2
07:02 61.0 °F /  16.1 °C 56.5 °F /  13.6 °C 29.72in /  1006.3hPa Calm     85% 0.00in /  0mm 86 W/m2
07:08 61.3 °F /  16.3 °C 56.8 °F /  13.8 °C 29.72in /  1006.3hPa Calm   2.0mph /  3.2km/h 85% 0.00in /  0mm 102 W/m2
07:14 61.6 °F /  16.4 °C 57.0 °F /  13.9 °C 29.72in /  1006.3hPa WNW 1.0mph /  1.6km/h 1.0mph /  1.6km/h 85% 0.00in /  0mm 160 W/m2
07:20 62.2 °F /  16.8 °C 57.3 °F /  14.1 °C 29.72in /  1006.3hPa Calm     84% 0.00in /  0mm 237 W/m2
07:26 63.3 °F /  17.4 °C 58.4 °F /  14.7 °C 29.72in /  1006.3hPa Calm     84% 0.00in /  0mm 223 W/m2
07:32 64.2 °F /  17.9 °C 58.9 °F /  14.9 °C 29.72in /  1006.3hPa Calm     83% 0.00in /  0mm 165 W/m2
07:38 65.0 °F /  18.3 °C 59.4 °F /  15.2 °C 29.72in /  1006.3hPa Calm     82% 0.00in /  0mm 167 W/m2
07:44 65.6 °F /  18.7 °C 59.6 °F /  15.3 °C 29.72in /  1006.3hPa Calm     81% 0.00in /  0mm 197 W/m2
07:50 66.2 °F /  19 °C 60.5 °F /  15.8 °C 29.72in /  1006.3hPa Calm     82% 0.00in /  0mm 211 W/m2
07:56 66.9 °F /  19.4 °C 60.9 °F /  16.1 °C 29.72in /  1006.3hPa Calm     81% 0.00in /  0mm 195 W/m2
08:03 67.6 °F /  19.8 °C 60.9 °F /  16.1 °C 29.73in /  1006.7hPa Calm   1.0mph /  1.6km/h 79% 0.00in /  0mm 181 W/m2
08:08 68.2 °F /  20.1 °C 60.7 °F /  15.9 °C 29.72in /  1006.3hPa WNW 1.0mph /  1.6km/h 1.0mph /  1.6km/h 77% 0.00in /  0mm 167 W/m2
08:14 68.7 °F /  20.4 °C 60.8 °F /  16 °C 29.73in /  1006.7hPa NNW 1.0mph /  1.6km/h 3.0mph /  4.8km/h 76% 0.00in /  0mm 262 W/m2
08:20 69.3 °F /  20.7 °C 59.5 °F /  15.3 °C 29.74in /  1007hPa NNW 1.0mph /  1.6km/h 1.0mph /  1.6km/h 71% 0.00in /  0mm 346 W/m2
08:26 70.4 °F /  21.3 °C 58.9 °F /  14.9 °C 29.74in /  1007hPa NNW 1.0mph /  1.6km/h 1.0mph /  1.6km/h 67% 0.00in /  0mm 323 W/m2
08:32 71.2 °F /  21.8 °C 59.3 °F /  15.2 °C 29.74in /  1007hPa Calm   1.0mph /  1.6km/h 66% 0.00in /  0mm 422 W/m2
08:38 72.1 °F /  22.3 °C 58.8 °F /  14.9 °C 29.74in /  1007hPa Calm   1.0mph /  1.6km/h 63% 0.00in /  0mm 241 W/m2
08:44 72.8 °F /  22.7 °C 58.6 °F /  14.8 °C 29.74in /  1007hPa Calm     61% 0.00in /  0mm 415 W/m2
08:50 73.7 °F /  23.2 °C 59.4 °F /  15.2 °C 29.74in /  1007hPa Calm     61% 0.00in /  0mm 485 W/m2
08:56 74.8 °F /  23.8 °C 59.5 °F /  15.3 °C 29.74in /  1007hPa NNW 1.0mph /  1.6km/h 2.0mph /  3.2km/h 59% 0.00in /  0mm 515 W/m2
09:02 75.4 °F /  24.1 °C 60.1 °F /  15.6 °C 29.74in /  1007hPa North 1.0mph /  1.6km/h 1.0mph /  1.6km/h 59% 0.00in /  0mm 341 W/m2
09:08 75.7 °F /  24.3 °C 57.9 °F /  14.4 °C 29.74in /  1007hPa North 1.0mph /  1.6km/h 3.0mph /  4.8km/h 54% 0.00in /  0mm 325 W/m2
09:14 75.8 °F /  24.3 °C 55.8 °F /  13.2 °C 29.74in /  1007hPa West 1.0mph /  1.6km/h 2.0mph /  3.2km/h 50% 0.00in /  0mm 508 W/m2
09:20 76.5 °F /  24.7 °C 58.1 °F /  14.5 °C 29.74in /  1007hPa Calm   2.0mph /  3.2km/h 53% 0.00in /  0mm 575 W/m2
09:26 77.2 °F /  25.1 °C 57.1 °F /  13.9 °C 29.74in /  1007hPa Calm   2.0mph /  3.2km/h 50% 0.00in /  0mm 596 W/m2
09:32 77.8 °F /  25.4 °C 57.1 °F /  13.9 °C 29.74in /  1007hPa Calm   1.0mph /  1.6km/h 49% 0.00in /  0mm 439 W/m2
09:38 78.0 °F /  25.6 °C 58.4 °F /  14.7 °C 29.74in /  1007hPa WNW 1.0mph /  1.6km/h 2.0mph /  3.2km/h 51% 0.00in /  0mm 652 W/m2
09:44 78.0 °F /  25.6 °C 54.9 °F /  12.7 °C 29.74in /  1007hPa WNW 1.0mph /  1.6km/h 3.0mph /  4.8km/h 45% 0.00in /  0mm 740 W/m2
09:50 77.6 °F /  25.3 °C 55.2 °F /  12.9 °C 29.74in /  1007hPa NNW 2.0mph /  3.2km/h 3.0mph /  4.8km/h 46% 0.00in /  0mm 334 W/m2
09:56 76.7 °F /  24.8 °C 57.2 °F /  14 °C 29.74in /  1007hPa NW 2.0mph /  3.2km/h 4.0mph /  6.4km/h 51% 0.00in /  0mm 313 W/m2
10:02 75.9 °F /  24.4 °C 56.5 °F /  13.6 °C 29.74in /  1007hPa NW 2.0mph /  3.2km/h 2.0mph /  3.2km/h 51% 0.00in /  0mm 404 W/m2
10:08 75.9 °F /  24.4 °C 57.0 °F /  13.9 °C 29.74in /  1007hPa NNW 2.0mph /  3.2km/h 3.0mph /  4.8km/h 52% 0.00in /  0mm 524 W/m2
10:14 76.4 °F /  24.7 °C 57.5 °F /  14.2 °C 29.74in /  1007hPa NNW 2.0mph /  3.2km/h 2.0mph /  3.2km/h 52% 0.00in /  0mm 571 W/m2
10:20 77.3 °F /  25.2 °C 57.8 °F /  14.3 °C 29.74in /  1007hPa NNW 1.0mph /  1.6km/h 3.0mph /  4.8km/h 51% 0.00in /  0mm 619 W/m2
10:26 78.0 °F /  25.6 °C 56.7 °F /  13.7 °C 29.74in /  1007hPa NNW 1.0mph /  1.6km/h 4.0mph /  6.4km/h 48% 0.00in /  0mm 742 W/m2
10:32 78.6 °F /  25.9 °C 57.3 °F /  14.1 °C 29.74in /  1007hPa North 1.0mph /  1.6km/h 2.0mph /  3.2km/h 48% 0.00in /  0mm 784 W/m2
10:38 78.9 °F /  26.1 °C 60.3 °F /  15.7 °C 29.74in /  1007hPa NNW 1.0mph /  1.6km/h 2.0mph /  3.2km/h 53% 0.00in /  0mm 798 W/m2
10:44 78.8 °F /  26 °C 56.9 °F /  13.8 °C 29.74in /  1007hPa NNW 2.0mph /  3.2km/h 4.0mph /  6.4km/h 47% 0.00in /  0mm 703 W/m2
10:50 78.7 °F /  25.9 °C 59.6 °F /  15.3 °C 29.75in /  1007.3hPa NW 1.0mph /  1.6km/h 6.0mph /  9.7km/h 52% 0.00in /  0mm 759 W/m2
10:56 78.4 °F /  25.8 °C 56.5 °F /  13.6 °C 29.74in /  1007hPa West 1.0mph /  1.6km/h 6.0mph /  9.7km/h 47% 0.00in /  0mm 780 W/m2
11:02 78.3 °F /  25.7 °C 55.8 °F /  13.2 °C 29.74in /  1007hPa WNW 1.0mph /  1.6km/h 1.0mph /  1.6km/h 46% 0.00in /  0mm 575 W/m2
11:08 78.4 °F /  25.8 °C 56.5 °F /  13.6 °C 29.74in /  1007hPa West 1.0mph /  1.6km/h 2.0mph /  3.2km/h 47% 0.00in /  0mm 766 W/m2
11:16 79.0 °F /  26.1 °C 58.8 °F /  14.9 °C 29.74in /  1007hPa WSW 1.0mph /  1.6km/h 1.0mph /  1.6km/h 50% 0.00in /  0mm 705 W/m2
11:22 79.2 °F /  26.2 °C 58.4 °F /  14.7 °C 29.74in /  1007hPa Calm   1.0mph /  1.6km/h 49% 0.00in /  0mm 761 W/m2
11:28 79.1 °F /  26.2 °C 57.1 °F /  13.9 °C 29.74in /  1007hPa NW 1.0mph /  1.6km/h 3.0mph /  4.8km/h 47% 0.00in /  0mm 585 W/m2
11:34 78.6 °F /  25.9 °C 56.7 °F /  13.7 °C 29.74in /  1007hPa SW 2.0mph /  3.2km/h 4.0mph /  6.4km/h 47% 0.00in /  0mm 735 W/m2
11:40 78.2 °F /  25.7 °C 56.3 °F /  13.5 °C 29.74in /  1007hPa SW 2.0mph /  3.2km/h 2.0mph /  3.2km/h 47% 0.00in /  0mm 816 W/m2
11:46 79.6 °F /  26.4 °C 59.3 °F /  15.2 °C 29.74in /  1007hPa WSW 1.0mph /  1.6km/h 2.0mph /  3.2km/h 50% 0.00in /  0mm 608 W/m2
11:52 79.6 °F /  26.4 °C 57.6 °F /  14.2 °C 29.74in /  1007hPa Calm   5.0mph /  8km/h 47% 0.00in /  0mm 763 W/m2
11:58 80.3 °F /  26.8 °C 63.7 °F /  17.6 °C 29.74in /  1007hPa NW 1.0mph /  1.6km/h 5.0mph /  8km/h 57% 0.00in /  0mm 919 W/m2
12:04 80.2 °F /  26.8 °C 58.1 °F /  14.5 °C 29.74in /  1007hPa NW 1.0mph /  1.6km/h 2.0mph /  3.2km/h 47% 0.00in /  0mm 865 W/m2
12:10 80.0 °F /  26.7 °C 59.1 °F /  15.1 °C 29.74in /  1007hPa NW 1.0mph /  1.6km/h 3.0mph /  4.8km/h 49% 0.00in /  0mm 814 W/m2
12:16 80.2 °F /  26.8 °C 61.0 °F /  16.1 °C 29.74in /  1007hPa West 1.0mph /  1.6km/h 3.0mph /  4.8km/h 52% 0.00in /  0mm 722 W/m2
12:22 80.4 °F /  26.9 °C 58.3 °F /  14.6 °C 29.75in /  1007.3hPa NNW 1.0mph /  1.6km/h 1.0mph /  1.6km/h 47% 0.00in /  0mm 925 W/m2
12:28 81.0 °F /  27.2 °C 61.7 °F /  16.5 °C 29.75in /  1007.3hPa North 2.0mph /  3.2km/h 4.0mph /  6.4km/h 52% 0.00in /  0mm 865 W/m2
12:34 81.3 °F /  27.4 °C 59.1 °F /  15.1 °C 29.75in /  1007.3hPa WSW 2.0mph /  3.2km/h 2.0mph /  3.2km/h 47% 0.00in /  0mm 921 W/m2
12:40 80.4 °F /  26.9 °C 57.7 °F /  14.3 °C 29.75in /  1007.3hPa West 1.0mph /  1.6km/h 1.0mph /  1.6km/h 46% 0.00in /  0mm 715 W/m2
12:46 80.2 °F /  26.8 °C 59.3 °F /  15.2 °C 29.75in /  1007.3hPa NW 1.0mph /  1.6km/h 1.0mph /  1.6km/h 49% 0.00in /  0mm 705 W/m2
12:52 80.2 °F /  26.8 °C 59.9 °F /  15.5 °C 29.75in /  1007.3hPa WSW 2.0mph /  3.2km/h 2.0mph /  3.2km/h 50% 0.00in /  0mm 585 W/m2
12:58 80.5 °F /  26.9 °C 58.4 °F /  14.7 °C 29.75in /  1007.3hPa WSW 1.0mph /  1.6km/h 5.0mph /  8km/h 47% 0.00in /  0mm 707 W/m2
13:08 80.4 °F /  26.9 °C 61.2 °F /  16.2 °C 29.75in /  1007.3hPa West 2.0mph /  3.2km/h 3.0mph /  4.8km/h 52% 0.00in /  0mm 680 W/m2
13:14 80.4 °F /  26.9 °C 58.9 °F /  14.9 °C 29.75in /  1007.3hPa SW 2.0mph /  3.2km/h 5.0mph /  8km/h 48% 0.00in /  0mm 833 W/m2
13:20 80.9 °F /  27.2 °C 61.1 °F /  16.2 °C 29.75in /  1007.3hPa West 2.0mph /  3.2km/h 2.0mph /  3.2km/h 51% 0.00in /  0mm 838 W/m2
13:26 80.9 °F /  27.2 °C 59.4 °F /  15.2 °C 29.75in /  1007.3hPa WSW 2.0mph /  3.2km/h 6.0mph /  9.7km/h 48% 0.00in /  0mm 682 W/m2
13:32 81.6 °F /  27.6 °C 59.4 °F /  15.2 °C 29.75in /  1007.3hPa NNW 2.0mph /  3.2km/h 3.0mph /  4.8km/h 47% 0.00in /  0mm 647 W/m2
13:38 81.6 °F /  27.6 °C 61.2 °F /  16.2 °C 29.75in /  1007.3hPa North 2.0mph /  3.2km/h 3.0mph /  4.8km/h 50% 0.00in /  0mm 689 W/m2
13:44 81.5 °F /  27.5 °C 59.3 °F /  15.2 °C 29.75in /  1007.3hPa WSW 1.0mph /  1.6km/h 2.0mph /  3.2km/h 47% 0.00in /  0mm 589 W/m2
13:50 80.9 °F /  27.2 °C 58.2 °F /  14.6 °C 29.75in /  1007.3hPa West 1.0mph /  1.6km/h 1.0mph /  1.6km/h 46% 0.00in /  0mm 450 W/m2
13:56 80.8 °F /  27.1 °C 61.0 °F /  16.1 °C 29.75in /  1007.3hPa North 1.0mph /  1.6km/h 2.0mph /  3.2km/h 51% 0.00in /  0mm 415 W/m2
14:02 80.7 °F /  27.1 °C 61.4 °F /  16.3 °C 29.75in /  1007.3hPa NNW 1.0mph /  1.6km/h 1.0mph /  1.6km/h 52% 0.00in /  0mm 411 W/m2
14:08 80.7 °F /  27.1 °C 60.3 °F /  15.7 °C 29.75in /  1007.3hPa NNW 1.0mph /  1.6km/h 1.0mph /  1.6km/h 50% 0.00in /  0mm 424 W/m2
14:14 80.5 °F /  26.9 °C 59.6 °F /  15.3 °C 29.75in /  1007.3hPa North 2.0mph /  3.2km/h 2.0mph /  3.2km/h 49% 0.00in /  0mm 436 W/m2
14:20 80.3 °F /  26.8 °C 60.0 °F /  15.6 °C 29.75in /  1007.3hPa North 2.0mph /  3.2km/h 2.0mph /  3.2km/h 50% 0.00in /  0mm 422 W/m2
14:26 80.3 °F /  26.8 °C 60.0 °F /  15.6 °C 29.75in /  1007.3hPa NNW 1.0mph /  1.6km/h 3.0mph /  4.8km/h 50% 0.00in /  0mm 388 W/m2
14:32 80.4 °F /  26.9 °C 61.2 °F /  16.2 °C 29.75in /  1007.3hPa NNW 2.0mph /  3.2km/h 2.0mph /  3.2km/h 52% 0.00in /  0mm 390 W/m2
14:38 80.5 °F /  26.9 °C 60.7 °F /  15.9 °C 29.75in /  1007.3hPa NNW 1.0mph /  1.6km/h 3.0mph /  4.8km/h 51% 0.00in /  0mm 504 W/m2
14:44 80.8 °F /  27.1 °C 59.9 °F /  15.5 °C 29.75in /  1007.3hPa NNW 1.0mph /  1.6km/h 3.0mph /  4.8km/h 49% 0.00in /  0mm 531 W/m2
14:50 80.9 °F /  27.2 °C 59.9 °F /  15.5 °C 29.75in /  1007.3hPa NNW 2.0mph /  3.2km/h 2.0mph /  3.2km/h 49% 0.00in /  0mm 496 W/m2
14:56 80.9 °F /  27.2 °C 59.9 °F /  15.5 °C 29.75in /  1007.3hPa North 1.0mph /  1.6km/h 3.0mph /  4.8km/h 49% 0.00in /  0mm 512 W/m2
15:02 80.6 °F /  27 °C 59.7 °F /  15.4 °C 29.75in /  1007.3hPa NNW 2.0mph /  3.2km/h 2.0mph /  3.2km/h 49% 0.00in /  0mm 522 W/m2
15:08 80.9 °F /  27.2 °C 62.2 °F /  16.8 °C 29.75in /  1007.3hPa NNW 2.0mph /  3.2km/h 3.0mph /  4.8km/h 53% 0.00in /  0mm 483 W/m2
15:14 81.4 °F /  27.4 °C 60.4 °F /  15.8 °C 29.75in /  1007.3hPa NNW 1.0mph /  1.6km/h 5.0mph /  8km/h 49% 0.00in /  0mm 831 W/m2
15:20 81.3 °F /  27.4 °C 58.5 °F /  14.7 °C 29.75in /  1007.3hPa North 2.0mph /  3.2km/h 2.0mph /  3.2km/h 46% 0.00in /  0mm 782 W/m2
15:26 81.4 °F /  27.4 °C 63.2 °F /  17.3 °C 29.75in /  1007.3hPa NNW 1.0mph /  1.6km/h 5.0mph /  8km/h 54% 0.00in /  0mm 512 W/m2
15:32 81.7 °F /  27.6 °C 61.8 °F /  16.6 °C 29.75in /  1007.3hPa NNW 2.0mph /  3.2km/h 2.0mph /  3.2km/h 51% 0.00in /  0mm 563 W/m2
15:38 82.3 °F /  27.9 °C 61.2 °F /  16.2 °C 29.75in /  1007.3hPa NNW 1.0mph /  1.6km/h 2.0mph /  3.2km/h 49% 0.00in /  0mm 817 W/m2
15:46 81.6 °F /  27.6 °C 60.6 °F /  15.9 °C 29.75in /  1007.3hPa NW 1.0mph /  1.6km/h 1.0mph /  1.6km/h 49% 0.00in /  0mm 323 W/m2
15:52 81.1 °F /  27.3 °C 60.1 °F /  15.6 °C 29.75in /  1007.3hPa NNW 1.0mph /  1.6km/h 3.0mph /  4.8km/h 49% 0.00in /  0mm 420 W/m2
15:58 80.9 °F /  27.2 °C 59.4 °F /  15.2 °C 29.75in /  1007.3hPa NW 2.0mph /  3.2km/h 2.0mph /  3.2km/h 48% 0.00in /  0mm 404 W/m2
16:04 80.7 °F /  27.1 °C 62.5 °F /  16.9 °C 29.75in /  1007.3hPa North 2.0mph /  3.2km/h 3.0mph /  4.8km/h 54% 0.00in /  0mm 411 W/m2
16:10 81.2 °F /  27.3 °C 60.8 °F /  16 °C 29.75in /  1007.3hPa NNW 1.0mph /  1.6km/h 1.0mph /  1.6km/h 50% 0.00in /  0mm 561 W/m2
16:16 81.4 °F /  27.4 °C 61.0 °F /  16.1 °C 29.75in /  1007.3hPa NNW 1.0mph /  1.6km/h 2.0mph /  3.2km/h 50% 0.00in /  0mm 459 W/m2
16:22 81.7 °F /  27.6 °C 62.4 °F /  16.9 °C 29.75in /  1007.3hPa NNW 2.0mph /  3.2km/h 2.0mph /  3.2km/h 52% 0.00in /  0mm 631 W/m2
16:28 82.3 °F /  27.9 °C 60.6 °F /  15.9 °C 29.75in /  1007.3hPa NNW 2.0mph /  3.2km/h 4.0mph /  6.4km/h 48% 0.00in /  0mm 643 W/m2
16:36 82.2 °F /  27.9 °C 60.0 °F /  15.6 °C 29.74in /  1007hPa North 2.0mph /  3.2km/h 2.0mph /  3.2km/h 47% 0.00in /  0mm 617 W/m2
16:42 82.0 °F /  27.8 °C 60.4 °F /  15.8 °C 29.74in /  1007hPa North 1.0mph /  1.6km/h 3.0mph /  4.8km/h 48% 0.00in /  0mm 396 W/m2
16:48 81.7 °F /  27.6 °C 60.7 °F /  15.9 °C 29.74in /  1007hPa North 1.0mph /  1.6km/h 3.0mph /  4.8km/h 49% 0.00in /  0mm 250 W/m2
16:54 81.4 °F /  27.4 °C 60.4 °F /  15.8 °C 29.74in /  1007hPa North 1.0mph /  1.6km/h 2.0mph /  3.2km/h 49% 0.00in /  0mm 262 W/m2
17:00 81.4 °F /  27.4 °C 59.2 °F /  15.1 °C 29.74in /  1007hPa North 1.0mph /  1.6km/h 2.0mph /  3.2km/h 47% 0.00in /  0mm 192 W/m2
17:06 81.3 °F /  27.4 °C 62.0 °F /  16.7 °C 29.74in /  1007hPa North 2.0mph /  3.2km/h 3.0mph /  4.8km/h 52% 0.00in /  0mm 200 W/m2
17:12 81.1 °F /  27.3 °C 61.8 °F /  16.6 °C 29.74in /  1007hPa North 1.0mph /  1.6km/h 1.0mph /  1.6km/h 52% 0.00in /  0mm 207 W/m2
17:18 81.0 °F /  27.2 °C 60.6 °F /  15.9 °C 29.74in /  1007hPa Calm   1.0mph /  1.6km/h 50% 0.00in /  0mm 185 W/m2
17:24 80.8 °F /  27.1 °C 59.9 °F /  15.5 °C 29.74in /  1007hPa Calm   1.0mph /  1.6km/h 49% 0.00in /  0mm 181 W/m2
17:30 80.7 °F /  27.1 °C 60.9 °F /  16.1 °C 29.74in /  1007hPa Calm   1.0mph /  1.6km/h 51% 0.00in /  0mm 165 W/m2
17:36 80.6 °F /  27 °C 60.8 °F /  16 °C 29.74in /  1007hPa Calm   1.0mph /  1.6km/h 51% 0.00in /  0mm 139 W/m2
17:42 80.3 °F /  26.8 °C 61.6 °F /  16.4 °C 29.74in /  1007hPa Calm     53% 0.00in /  0mm 120 W/m2
17:48 80.1 °F /  26.7 °C 61.4 °F /  16.3 °C 29.74in /  1007hPa Calm   1.0mph /  1.6km/h 53% 0.00in /  0mm 111 W/m2
17:56 79.9 °F /  26.6 °C 61.2 °F /  16.2 °C 29.74in /  1007hPa Calm   1.0mph /  1.6km/h 53% 0.00in /  0mm 114 W/m2
18:02 79.6 °F /  26.4 °C 61.0 °F /  16.1 °C 29.74in /  1007hPa NNW 1.0mph /  1.6km/h 2.0mph /  3.2km/h 53% 0.00in /  0mm 107 W/m2
18:08 79.4 °F /  26.3 °C 61.3 °F /  16.3 °C 29.74in /  1007hPa NNW 1.0mph /  1.6km/h 2.0mph /  3.2km/h 54% 0.00in /  0mm 121 W/m2
18:14 79.1 °F /  26.2 °C 61.0 °F /  16.1 °C 29.75in /  1007.3hPa NNW 1.0mph /  1.6km/h 2.0mph /  3.2km/h 54% 0.00in /  0mm 139 W/m2
18:20 79.0 °F /  26.1 °C 61.5 °F /  16.4 °C 29.75in /  1007.3hPa NNW 1.0mph /  1.6km/h 2.0mph /  3.2km/h 55% 0.00in /  0mm 144 W/m2
18:26 78.9 °F /  26.1 °C 61.4 °F /  16.3 °C 29.75in /  1007.3hPa NNW 1.0mph /  1.6km/h 2.0mph /  3.2km/h 55% 0.00in /  0mm 130 W/m2
18:32 78.8 °F /  26 °C 61.3 °F /  16.3 °C 29.75in /  1007.3hPa NNW 1.0mph /  1.6km/h 2.0mph /  3.2km/h 55% 0.00in /  0mm 123 W/m2
18:38 78.3 °F /  25.7 °C 60.8 °F /  16 °C 29.75in /  1007.3hPa NNE 2.0mph /  3.2km/h 5.0mph /  8km/h 55% 0.00in /  0mm 114 W/m2
18:44 77.9 °F /  25.5 °C 60.9 °F /  16.1 °C 29.75in /  1007.3hPa North 3.0mph /  4.8km/h 6.0mph /  9.7km/h 56% 0.00in /  0mm 114 W/m2
18:50 77.5 °F /  25.3 °C 60.6 °F /  15.9 °C 29.75in /  1007.3hPa North 3.0mph /  4.8km/h 3.0mph /  4.8km/h 56% 0.00in /  0mm 132 W/m2
18:56 77.2 °F /  25.1 °C 61.3 °F /  16.3 °C 29.76in /  1007.7hPa North 2.0mph /  3.2km/h 3.0mph /  4.8km/h 58% 0.00in /  0mm 83 W/m2
19:02 76.9 °F /  24.9 °C 61.5 °F /  16.4 °C 29.76in /  1007.7hPa North 1.0mph /  1.6km/h 1.0mph /  1.6km/h 59% 0.00in /  0mm 77 W/m2
19:08 76.4 °F /  24.7 °C 61.0 °F /  16.1 °C 29.76in /  1007.7hPa North 2.0mph /  3.2km/h 4.0mph /  6.4km/h 59% 0.00in /  0mm 81 W/m2
19:14 76.1 °F /  24.5 °C 60.7 °F /  15.9 °C 29.77in /  1008hPa North 2.0mph /  3.2km/h 3.0mph /  4.8km/h 59% 0.00in /  0mm 67 W/m2
19:20 75.7 °F /  24.3 °C 60.4 °F /  15.8 °C 29.77in /  1008hPa North 2.0mph /  3.2km/h 2.0mph /  3.2km/h 59% 0.00in /  0mm 60 W/m2
19:26 75.4 °F /  24.1 °C 60.5 °F /  15.8 °C 29.77in /  1008hPa North 1.0mph /  1.6km/h 3.0mph /  4.8km/h 60% 0.00in /  0mm 54 W/m2
19:32 75.2 °F /  24 °C 60.4 °F /  15.8 °C 29.77in /  1008hPa North 1.0mph /  1.6km/h 2.0mph /  3.2km/h 60% 0.00in /  0mm 40 W/m2
19:38 75.0 °F /  23.9 °C 59.7 °F /  15.4 °C 29.78in /  1008.4hPa North 1.0mph /  1.6km/h 2.0mph /  3.2km/h 59% 0.00in /  0mm 39 W/m2
19:44 74.8 °F /  23.8 °C 59.5 °F /  15.3 °C 29.78in /  1008.4hPa Calm   1.0mph /  1.6km/h 59% 0.00in /  0mm 35 W/m2
Country Meadow, Clay, NY, USA
Compliments of Weather Underground - 2 mb